Terminal Aerodrome Forecast
Issued by NWS

Home | Current Version | Previous Version | Text Only | Print | Product List | Glossary On
Versions: 1 2 3 4 5 6 7 8 9 10 11 12 13 14 15 16 17 18 19 20 21 22 23 24 25 26
000
FTUS42 KFFC 210520
TAFFTY
TAF
KFTY 210520Z 2106/2206 00000KT P6SM SCT120
     FM211100 24004KT P6SM BKN070
     FM211400 30008KT P6SM BKN040 OVC070
     FM211800 30012G17KT P6SM BKN035 OVC070
     FM212100 29012G22KT P6SM SCT040
     FM220100 29008KT P6SM SKC=

USA.gov is the U.S. government's official web portal to all federal, state and local government web resources and services.